Time;durP1;ratioP1;P1;durP2;ratioP2;P2;SDS_P1;SDS_P2;PMS_P1;PMS_P2;Temp;Humidity;BMP_temperature;BMP_pressure;BME280_temperature;BME280_humidity;BME280_pressure;Samples;Min_cycle;Max_cycle;Signal;HPM_P1;HPM_P2
2022/03/07 00:02:08;;;;;;;7.00;3.50;;;1.60;68.40;;;;;;5054935;28;20024;-82
2022/03/07 00:04:35;;;;;;;8.97;4.53;;;1.50;68.70;;;;;;5038155;28;20028;-83
2022/03/07 00:07:00;;;;;;;12.87;3.50;;;1.50;68.60;;;;;;5040743;28;20018;-82
2022/03/07 00:09:26;;;;;;;9.17;4.07;;;1.50;68.70;;;;;;5034782;28;20075;-83
2022/03/07 00:11:52;;;;;;;7.83;3.77;;;1.40;68.80;;;;;;5034677;28;20022;-83
2022/03/07 00:14:17;;;;;;;7.47;3.40;;;1.40;68.90;;;;;;5038170;28;20082;-83
2022/03/07 00:16:44;;;;;;;7.80;3.60;;;1.40;69.00;;;;;;5054496;28;20021;-82
2022/03/07 00:19:09;;;;;;;8.40;3.90;;;1.40;69.20;;;;;;5054829;28;20036;-83
2022/03/07 00:21:36;;;;;;;5.97;3.37;;;1.40;69.30;;;;;;5037945;28;20021;-82
2022/03/07 00:24:02;;;;;;;9.37;3.97;;;1.40;69.50;;;;;;5021687;28;20040;-82
2022/03/07 00:26:28;;;;;;;7.83;3.53;;;1.40;69.50;;;;;;5042886;28;20033;-83
2022/03/07 00:28:54;;;;;;;11.67;3.60;;;1.40;70.20;;;;;;5017937;28;20025;-83
2022/03/07 00:31:20;;;;;;;8.73;3.73;;;1.40;69.70;;;;;;5034506;28;20477;-83
2022/03/07 00:33:47;;;;;;;7.77;4.60;;;1.30;69.70;;;;;;5034285;28;20028;-84
2022/03/07 00:36:13;;;;;;;5.97;3.50;;;1.30;69.70;;;;;;5033306;28;20029;-83
2022/03/07 00:38:39;;;;;;;7.83;3.33;;;1.30;70.50;;;;;;5034500;28;20029;-83
2022/03/07 00:41:04;;;;;;;7.57;3.80;;;1.20;69.90;;;;;;5032748;28;20464;-83
2022/03/07 00:43:30;;;;;;;8.17;4.13;;;1.20;70.00;;;;;;5054009;28;20115;-83
2022/03/07 00:45:56;;;;;;;7.40;3.70;;;1.20;70.80;;;;;;5016958;28;20029;-83
2022/03/07 00:48:22;;;;;;;10.80;4.13;;;1.20;70.20;;;;;;5033943;28;20041;-83
2022/03/07 00:50:51;;;;;;;6.60;3.43;;;1.10;70.30;;;;;;5035374;28;20567;-84
2022/03/07 00:53:20;;;;;;;8.43;3.47;;;1.10;70.50;;;;;;5034385;28;20049;-84
2022/03/07 00:55:46;;;;;;;7.67;4.47;;;1.00;70.60;;;;;;5034113;28;20021;-83
2022/03/07 00:58:12;;;;;;;7.63;3.77;;;1.10;70.70;;;;;;5017496;28;20399;-84
2022/03/07 01:00:39;;;;;;;8.43;4.10;;;1.00;70.80;;;;;;5035302;28;20033;-83
2022/03/07 01:03:06;;;;;;;9.50;3.63;;;1.00;70.90;;;;;;5033786;28;20059;-82
2022/03/07 01:05:32;;;;;;;9.63;4.50;;;1.00;71.10;;;;;;5042427;28;20013;-83
2022/03/07 01:07:58;;;;;;;8.27;4.13;;;0.90;71.10;;;;;;5053631;28;20028;-84
2022/03/07 01:10:25;;;;;;;8.50;3.97;;;0.90;71.20;;;;;;5053453;28;20484;-83
2022/03/07 01:12:51;;;;;;;7.87;3.80;;;0.90;71.40;;;;;;5037015;28;20112;-83
2022/03/07 01:15:16;;;;;;;8.03;3.80;;;0.90;71.40;;;;;;5037056;28;20504;-83
2022/03/07 01:17:42;;;;;;;9.43;4.27;;;0.90;71.60;;;;;;5053339;28;20419;-83
2022/03/07 01:20:10;;;;;;;8.13;4.10;;;0.90;71.70;;;;;;5032964;28;20026;-83
2022/03/07 01:22:36;;;;;;;7.30;3.57;;;0.90;71.80;;;;;;5050229;28;20039;-84
2022/03/07 01:25:04;;;;;;;7.47;3.67;;;0.90;72.00;;;;;;5040099;28;20017;-83
2022/03/07 01:27:30;;;;;;;7.80;3.60;;;0.90;72.00;;;;;;5053135;28;20111;-83
2022/03/07 01:29:56;;;;;;;7.97;4.30;;;0.90;72.00;;;;;;5054495;28;20063;-83
2022/03/07 01:32:21;;;;;;;7.20;3.57;;;0.90;72.00;;;;;;5036570;28;20021;-83
2022/03/07 01:34:47;;;;;;;8.00;3.43;;;0.90;72.00;;;;;;5049382;28;20453;-83
2022/03/07 01:37:12;;;;;;;11.13;4.20;;;0.90;72.00;;;;;;5020081;28;20497;-83
2022/03/07 01:39:38;;;;;;;9.93;4.03;;;0.90;72.00;;;;;;5019992;28;20469;-82
2022/03/07 01:42:04;;;;;;;7.30;3.80;;;0.90;72.00;;;;;;5052963;28;20063;-83
2022/03/07 01:44:30;;;;;;;7.33;4.20;;;0.90;72.00;;;;;;5015937;28;20444;-82
2022/03/07 01:46:57;;;;;;;8.50;4.23;;;0.80;72.10;;;;;;5016568;28;20453;-82
2022/03/07 01:49:23;;;;;;;8.10;3.93;;;0.80;72.20;;;;;;5016308;28;20498;-83
2022/03/07 01:51:49;;;;;;;6.63;4.00;;;0.70;72.40;;;;;;5016416;28;20068;-83
2022/03/07 01:54:17;;;;;;;9.00;4.83;;;0.70;72.50;;;;;;5049358;28;20025;-83
2022/03/07 01:56:45;;;;;;;7.70;4.30;;;0.70;72.70;;;;;;5033615;28;20032;-83
2022/03/07 01:59:16;;;;;;;8.40;4.30;;;0.70;72.80;;;;;;5052284;28;20321;-83
2022/03/07 02:01:42;;;;;;;9.87;4.27;;;0.70;72.80;;;;;;5052862;28;20029;-82
2022/03/07 02:04:08;;;;;;;10.30;4.27;;;0.70;73.10;;;;;;5052209;28;20036;-82
2022/03/07 02:06:35;;;;;;;9.07;4.50;;;0.70;73.10;;;;;;5052407;28;20143;-83
2022/03/07 02:09:01;;;;;;;7.90;4.53;;;0.60;73.20;;;;;;5052583;28;20071;-83
2022/03/07 02:11:27;;;;;;;9.23;4.53;;;0.70;73.50;;;;;;5050798;28;20064;-83
2022/03/07 02:13:53;;;;;;;9.67;4.43;;;0.70;73.60;;;;;;5052576;28;20068;-84
2022/03/07 02:16:19;;;;;;;9.47;4.27;;;0.70;73.70;;;;;;5053600;28;20075;-82
2022/03/07 02:18:46;;;;;;;11.70;4.90;;;0.60;74.20;;;;;;5052285;28;20021;-84
2022/03/07 02:21:17;;;;;;;11.50;4.50;;;0.60;74.00;;;;;;5052333;28;20051;-83
2022/03/07 02:23:45;;;;;;;8.80;4.53;;;0.70;73.80;;;;;;5039994;28;20044;-83
2022/03/07 02:26:12;;;;;;;8.47;4.90;;;0.60;73.90;;;;;;5032349;28;20064;-83
2022/03/07 02:28:45;;;;;;;9.03;4.77;;;0.60;73.70;;;;;;5016143;28;20029;-83
2022/03/07 02:31:15;;;;;;;8.43;4.43;;;0.60;73.80;;;;;;5042654;28;20075;-83
2022/03/07 02:33:41;;;;;;;9.93;4.30;;;0.60;74.00;;;;;;5050287;28;20474;-83
2022/03/07 02:36:07;;;;;;;9.47;4.17;;;0.60;73.90;;;;;;5033829;28;20029;-83
2022/03/07 02:38:34;;;;;;;11.43;5.13;;;0.50;73.80;;;;;;5033443;28;20445;-83
2022/03/07 02:41:00;;;;;;;9.53;4.40;;;0.50;74.00;;;;;;5015710;28;20072;-83
2022/03/07 02:43:26;;;;;;;12.13;5.13;;;0.40;74.10;;;;;;5015966;28;20057;-83
2022/03/07 02:45:52;;;;;;;7.33;4.37;;;0.50;74.30;;;;;;5031945;28;20060;-84
2022/03/07 02:48:18;;;;;;;10.57;5.00;;;0.50;74.50;;;;;;5031695;28;20054;-83
2022/03/07 02:50:45;;;;;;;8.97;4.67;;;0.50;74.50;;;;;;5031956;28;20030;-84
2022/03/07 02:53:11;;;;;;;9.43;4.83;;;0.50;74.40;;;;;;5033076;28;20475;-82
2022/03/07 02:55:37;;;;;;;9.53;4.33;;;0.50;74.40;;;;;;5051789;28;20063;-83
2022/03/07 02:58:03;;;;;;;9.77;5.10;;;0.50;74.50;;;;;;5051685;28;20032;-83
2022/03/07 03:00:29;;;;;;;9.23;4.67;;;0.50;74.70;;;;;;5052888;28;20033;-83
2022/03/07 03:02:55;;;;;;;7.70;4.03;;;0.40;74.60;;;;;;5031741;28;20044;-84
2022/03/07 03:05:21;;;;;;;10.30;4.80;;;0.40;74.70;;;;;;5015498;28;20108;-83
2022/03/07 03:07:47;;;;;;;8.93;4.60;;;0.40;74.70;;;;;;5031835;28;20156;-83
2022/03/07 03:10:14;;;;;;;11.40;4.67;;;0.40;75.40;;;;;;5022963;28;20063;-83
2022/03/07 03:12:39;;;;;;;8.97;4.50;;;0.40;74.90;;;;;;5034984;28;20055;-83
2022/03/07 03:15:06;;;;;;;11.07;4.13;;;0.40;75.20;;;;;;5018645;28;20116;-84
2022/03/07 03:17:32;;;;;;;10.23;4.93;;;0.40;75.30;;;;;;5051599;28;20091;-84
2022/03/07 03:19:57;;;;;;;10.27;4.87;;;0.40;75.10;;;;;;5051733;28;20033;-84
2022/03/07 03:22:23;;;;;;;8.73;4.70;;;0.40;75.00;;;;;;5031527;28;20074;-84
2022/03/07 03:24:49;;;;;;;11.33;5.43;;;0.30;75.10;;;;;;5015326;28;20029;-83
2022/03/07 03:27:15;;;;;;;10.80;5.00;;;0.40;75.30;;;;;;5015284;28;20060;-83
2022/03/07 03:29:41;;;;;;;14.03;4.57;;;0.30;75.30;;;;;;5031524;28;20029;-83
2022/03/07 03:32:07;;;;;;;9.13;4.87;;;0.40;75.40;;;;;;5015140;28;20025;-83
2022/03/07 03:34:33;;;;;;;10.37;5.43;;;0.30;75.50;;;;;;5015338;28;20466;-83
2022/03/07 03:36:59;;;;;;;10.10;5.57;;;0.30;75.60;;;;;;5032750;28;20038;-83
2022/03/07 03:39:25;;;;;;;11.23;5.30;;;0.30;75.70;;;;;;5015749;28;20034;-83
2022/03/07 03:41:50;;;;;;;13.17;6.33;;;0.30;75.70;;;;;;5032022;28;20108;-84
2022/03/07 03:44:16;;;;;;;11.83;5.57;;;0.30;76.20;;;;;;5015027;28;20034;-83
2022/03/07 03:46:42;;;;;;;11.70;6.17;;;0.30;76.40;;;;;;5015243;28;20386;-83
2022/03/07 03:49:08;;;;;;;12.00;5.63;;;0.30;76.40;;;;;;5033272;28;20505;-83
2022/03/07 03:51:36;;;;;;;11.27;5.70;;;0.30;76.40;;;;;;5015087;28;20022;-82
2022/03/07 03:54:02;;;;;;;12.60;6.00;;;0.30;76.40;;;;;;5044841;28;20176;-83
2022/03/07 03:56:27;;;;;;;11.57;5.97;;;0.20;76.40;;;;;;5034656;28;20307;-82
2022/03/07 03:58:53;;;;;;;13.50;5.83;;;0.30;76.50;;;;;;5051508;28;20330;-82
2022/03/07 04:01:18;;;;;;;12.53;6.33;;;0.30;76.60;;;;;;5031055;28;20064;-83
2022/03/07 04:03:44;;;;;;;10.37;5.43;;;0.20;76.70;;;;;;5030984;28;20463;-83
2022/03/07 04:06:10;;;;;;;12.17;5.97;;;0.30;76.80;;;;;;5031342;28;20022;-83
2022/03/07 04:09:16;;;;;;;12.13;5.97;;;0.30;77.00;;;;;;5031258;28;20103;-83
2022/03/07 04:11:43;;;;;;;14.47;6.27;;;0.20;76.80;;;;;;5034275;28;20056;-83
2022/03/07 04:14:08;;;;;;;13.13;6.20;;;0.20;77.00;;;;;;5036138;28;20029;-82
2022/03/07 04:16:37;;;;;;;14.37;6.80;;;0.20;77.20;;;;;;5018271;28;20126;-83
2022/03/07 04:19:04;;;;;;;12.27;6.50;;;0.20;77.40;;;;;;5002825;28;20433;-83
2022/03/07 04:21:29;;;;;;;11.43;5.97;;;0.20;77.40;;;;;;5018324;28;20040;-83
2022/03/07 04:23:55;;;;;;;12.93;6.50;;;0.20;77.30;;;;;;5051156;28;20030;-83
2022/03/07 04:26:21;;;;;;;15.43;6.90;;;0.20;77.30;;;;;;5051248;28;20029;-83
2022/03/07 04:28:46;;;;;;;15.40;6.90;;;0.20;77.50;;;;;;5050998;28;20090;-83
2022/03/07 04:31:12;;;;;;;15.17;6.87;;;0.20;77.70;;;;;;5034354;28;20424;-83
2022/03/07 04:33:38;;;;;;;16.23;7.30;;;0.20;77.70;;;;;;5034335;28;20025;-83
2022/03/07 04:36:04;;;;;;;12.27;6.40;;;0.20;77.70;;;;;;5021673;28;20513;-83
2022/03/07 04:38:30;;;;;;;11.43;6.60;;;0.20;77.90;;;;;;5034254;28;20386;-82
2022/03/07 04:40:56;;;;;;;12.87;7.03;;;0.20;77.90;;;;;;5033738;28;20136;-83
2022/03/07 04:43:22;;;;;;;15.43;7.70;;;0.20;78.10;;;;;;5050716;28;20025;-83
2022/03/07 04:45:48;;;;;;;14.00;7.37;;;0.20;78.10;;;;;;5050862;28;20021;-82
2022/03/07 04:48:14;;;;;;;13.03;7.23;;;0.20;78.40;;;;;;5035156;28;20080;-82
2022/03/07 04:50:40;;;;;;;15.63;7.43;;;0.20;78.40;;;;;;5034123;28;20049;-83
2022/03/07 04:53:06;;;;;;;13.83;6.60;;;0.20;78.60;;;;;;5036305;28;20389;-83
2022/03/07 04:55:32;;;;;;;14.47;7.43;;;0.20;78.60;;;;;;5034028;28;20096;-83
2022/03/07 04:57:58;;;;;;;16.20;9.00;;;0.30;78.70;;;;;;5017393;28;20041;-82
2022/03/07 05:00:23;;;;;;;15.30;7.60;;;0.20;78.60;;;;;;5017699;28;20036;-83
2022/03/07 05:02:49;;;;;;;13.53;6.93;;;0.20;78.70;;;;;;5017261;28;20481;-83
2022/03/07 05:05:14;;;;;;;14.07;7.37;;;0.20;78.70;;;;;;5033826;28;20052;-82
2022/03/07 05:07:40;;;;;;;18.37;7.87;;;0.20;78.80;;;;;;5050462;28;20098;-83
2022/03/07 05:10:06;;;;;;;14.87;7.13;;;0.20;78.80;;;;;;5036113;28;20033;-83
2022/03/07 05:12:32;;;;;;;13.77;6.93;;;0.20;78.90;;;;;;5033717;28;20034;-83
2022/03/07 05:14:58;;;;;;;14.27;7.43;;;0.10;79.00;;;;;;5033767;28;20025;-83
2022/03/07 05:17:24;;;;;;;14.37;7.47;;;0.10;79.10;;;;;;5017390;28;20033;-83
2022/03/07 05:19:49;;;;;;;14.97;7.17;;;0.10;79.20;;;;;;5038409;28;20021;-84
2022/03/07 05:22:15;;;;;;;13.17;6.87;;;0.10;79.30;;;;;;5036391;28;20026;-83
2022/03/07 05:24:41;;;;;;;16.07;7.43;;;0.10;79.40;;;;;;5020276;28;20025;-83
2022/03/07 05:27:08;;;;;;;16.93;7.33;;;0.10;79.50;;;;;;5020324;28;20029;-83
2022/03/07 05:29:34;;;;;;;13.97;6.97;;;0.10;79.60;;;;;;5020681;28;20036;-83
2022/03/07 05:32:00;;;;;;;14.93;7.13;;;0.10;79.70;;;;;;5054613;28;20095;-83
2022/03/07 05:34:26;;;;;;;15.83;7.67;;;0.10;79.70;;;;;;5052574;28;20107;-84
2022/03/07 05:36:51;;;;;;;13.07;7.07;;;0.10;79.70;;;;;;5036523;28;20032;-83
2022/03/07 05:39:18;;;;;;;15.90;7.27;;;0.10;79.70;;;;;;5033810;28;20061;-83
2022/03/07 05:41:44;;;;;;;14.40;7.20;;;0.10;79.70;;;;;;5016716;28;20478;-82
2022/03/07 05:44:09;;;;;;;15.03;6.93;;;0.10;79.60;;;;;;5016578;28;20026;-82
2022/03/07 05:46:35;;;;;;;13.97;7.20;;;0.10;79.70;;;;;;5016580;28;20017;-82
2022/03/07 05:49:02;;;;;;;19.33;7.63;;;0.00;79.70;;;;;;5016404;28;20072;-84
2022/03/07 05:51:28;;;;;;;17.03;7.93;;;0.00;79.80;;;;;;5033694;28;20117;-83
2022/03/07 05:53:53;;;;;;;15.77;7.17;;;0.00;79.80;;;;;;5032825;28;20315;-83
2022/03/07 05:56:19;;;;;;;14.70;7.17;;;0.00;79.90;;;;;;5022006;28;20112;-83
2022/03/07 05:58:46;;;;;;;12.10;6.87;;;0.00;80.00;;;;;;5033187;28;20034;-83
2022/03/07 06:01:13;;;;;;;15.67;6.77;;;0.00;80.00;;;;;;5052731;28;20279;-83
2022/03/07 06:03:38;;;;;;;14.20;7.33;;;0.00;80.10;;;;;;5035893;28;20021;-82
2022/03/07 06:06:04;;;;;;;16.43;8.27;;;0.00;80.40;;;;;;5035855;28;20021;-84
2022/03/07 06:08:30;;;;;;;16.27;7.57;;;0.00;80.50;;;;;;5050780;28;20072;-82
2022/03/07 06:10:55;;;;;;;13.87;7.73;;;0.10;80.50;;;;;;5052399;28;20025;-82
2022/03/07 06:13:21;;;;;;;17.90;8.40;;;0.00;80.40;;;;;;5035935;28;20025;-83
2022/03/07 06:15:47;;;;;;;16.83;8.07;;;0.00;80.70;;;;;;5035736;28;20028;-83
2022/03/07 06:18:13;;;;;;;14.90;7.90;;;0.00;80.70;;;;;;5016039;28;20490;-83
2022/03/07 06:20:39;;;;;;;16.67;8.43;;;0.00;80.60;;;;;;5051202;28;20024;-83
2022/03/07 06:23:05;;;;;;;15.37;8.97;;;0.00;80.60;;;;;;5035846;28;20283;-82
2022/03/07 06:25:33;;;;;;;16.17;8.77;;;0.00;80.70;;;;;;5033502;28;20025;-83
2022/03/07 06:28:00;;;;;;;16.77;8.43;;;0.00;80.70;;;;;;5052782;28;20317;-82
2022/03/07 06:30:26;;;;;;;14.40;7.87;;;-0.10;80.80;;;;;;5047739;28;20386;-83
2022/03/07 06:32:51;;;;;;;16.87;8.00;;;0.00;81.00;;;;;;5037166;28;20033;-83
2022/03/07 06:35:17;;;;;;;13.80;8.03;;;-0.10;80.90;;;;;;5020825;28;20057;-83
2022/03/07 06:37:51;;;;;;;16.27;8.33;;;0.00;81.10;;;;;;5011584;28;20174;-82
2022/03/07 06:40:17;;;;;;;15.18;8.02;;;0.00;81.20;;;;;;5011656;28;20029;-83
2022/03/07 06:42:43;;;;;;;17.40;8.33;;;-0.10;81.20;;;;;;5038128;28;20091;-83
2022/03/07 06:45:12;;;;;;;14.60;8.23;;;0.00;81.30;;;;;;5027411;28;20025;-84
2022/03/07 06:47:39;;;;;;;15.07;8.03;;;0.00;81.30;;;;;;5037440;28;20432;-83
2022/03/07 06:50:05;;;;;;;13.13;7.13;;;0.00;81.30;;;;;;5035860;28;20788;-83
2022/03/07 06:52:31;;;;;;;13.27;6.83;;;0.00;81.40;;;;;;5043751;28;20070;-82
2022/03/07 06:54:56;;;;;;;17.97;7.47;;;0.00;81.40;;;;;;5033889;28;20025;-82
2022/03/07 06:57:22;;;;;;;13.97;7.57;;;0.10;81.60;;;;;;5036028;28;20029;-81
2022/03/07 06:59:48;;;;;;;14.60;7.60;;;0.00;81.60;;;;;;5036043;28;20032;-82
2022/03/07 07:02:14;;;;;;;16.87;8.67;;;0.10;81.80;;;;;;5050210;28;20033;-82
2022/03/07 07:04:40;;;;;;;14.53;7.63;;;0.10;81.70;;;;;;5046169;28;20033;-82
2022/03/07 07:07:05;;;;;;;14.90;8.20;;;0.10;81.80;;;;;;5046659;28;20116;-81
2022/03/07 07:09:31;;;;;;;16.37;7.40;;;0.10;81.80;;;;;;5034356;28;20163;-82
2022/03/07 07:11:57;;;;;;;14.90;7.47;;;0.10;81.80;;;;;;5034930;28;20112;-82
2022/03/07 07:14:22;;;;;;;16.53;7.77;;;0.10;81.90;;;;;;5050723;28;20033;-81
2022/03/07 07:16:48;;;;;;;16.33;7.90;;;0.30;82.10;;;;;;5050431;28;20057;-82
2022/03/07 07:19:14;;;;;;;17.93;7.90;;;0.20;82.20;;;;;;5051247;28;20114;-77
2022/03/07 07:21:40;;;;;;;16.00;7.97;;;0.20;82.10;;;;;;5050835;28;20481;-75
2022/03/07 07:24:06;;;;;;;13.17;7.13;;;0.20;82.10;;;;;;5050491;28;20485;-76
2022/03/07 07:26:32;;;;;;;15.73;9.20;;;0.20;82.10;;;;;;5051046;28;20029;-75
2022/03/07 07:28:58;;;;;;;16.73;8.03;;;0.30;82.20;;;;;;5027848;28;20404;-76
2022/03/07 07:31:23;;;;;;;16.60;7.53;;;0.30;82.30;;;;;;5026012;28;20033;-77
2022/03/07 07:33:49;;;;;;;15.33;7.47;;;0.40;82.40;;;;;;5051284;28;20025;-77
2022/03/07 07:36:15;;;;;;;15.73;8.13;;;0.30;82.50;;;;;;5034880;28;20029;-78
2022/03/07 07:38:41;;;;;;;16.23;7.83;;;0.40;82.70;;;;;;5034349;28;20043;-76
2022/03/07 07:41:07;;;;;;;13.57;7.13;;;0.40;82.80;;;;;;5051232;28;20033;-76
2022/03/07 07:43:33;;;;;;;15.77;8.60;;;0.50;82.90;;;;;;5051059;28;20041;-77
2022/03/07 07:45:59;;;;;;;18.50;7.80;;;0.60;83.10;;;;;;5053898;28;20025;-76
2022/03/07 07:48:24;;;;;;;17.17;7.33;;;0.60;83.10;;;;;;5055908;28;20045;-76
2022/03/07 07:50:50;;;;;;;13.57;7.70;;;0.70;83.30;;;;;;5030989;28;20160;-76
2022/03/07 07:53:16;;;;;;;16.50;7.70;;;0.90;83.90;;;;;;5022151;28;20091;-75
2022/03/07 07:55:41;;;;;;;13.10;7.00;;;0.90;83.30;;;;;;5018345;28;20371;-75
2022/03/07 07:58:08;;;;;;;12.87;7.27;;;1.00;83.30;;;;;;5025052;28;20073;-75
2022/03/07 08:00:33;;;;;;;16.63;6.97;;;1.00;83.10;;;;;;5031770;28;20649;-75
2022/03/07 08:02:59;;;;;;;14.43;6.63;;;1.10;83.10;;;;;;5032073;28;20029;-76
2022/03/07 08:05:25;;;;;;;15.47;8.03;;;1.30;83.20;;;;;;5017876;28;20038;-77
2022/03/07 08:07:51;;;;;;;12.40;6.70;;;1.30;83.10;;;;;;5037463;28;20539;-76
2022/03/07 08:10:17;;;;;;;15.13;7.60;;;1.30;83.10;;;;;;5054688;28;20033;-75
2022/03/07 08:12:44;;;;;;;12.20;6.90;;;1.30;82.90;;;;;;5038025;28;20029;-76
2022/03/07 08:15:13;;;;;;;13.03;7.47;;;1.40;82.90;;;;;;5031889;28;20029;-75
2022/03/07 08:17:49;;;;;;;12.90;7.10;;;1.50;82.90;;;;;;5034461;28;20030;-76
2022/03/07 08:20:16;;;;;;;14.83;7.67;;;1.50;82.80;;;;;;5051247;28;20029;-76
2022/03/07 08:22:43;;;;;;;15.77;7.27;;;1.60;83.40;;;;;;5019039;28;20025;-75
2022/03/07 08:25:09;;;;;;;12.23;7.50;;;1.60;82.60;;;;;;5054216;28;20487;-77
2022/03/07 08:27:35;;;;;;;13.27;7.23;;;1.70;82.70;;;;;;5053468;28;20143;-75
2022/03/07 08:30:09;;;;;;;13.50;6.73;;;1.80;83.30;;;;;;5017936;28;20060;-76
2022/03/07 08:32:35;;;;;;;12.13;6.10;;;1.80;82.70;;;;;;5050838;28;20120;-75
2022/03/07 08:35:01;;;;;;;11.30;6.73;;;1.90;82.70;;;;;;5055367;28;20457;-77
2022/03/07 08:37:27;;;;;;;13.20;6.40;;;2.00;82.70;;;;;;5054204;28;20075;-75
2022/03/07 08:39:53;;;;;;;12.17;6.47;;;2.10;82.70;;;;;;5053037;28;20025;-75
2022/03/07 08:42:19;;;;;;;11.97;7.10;;;2.10;82.60;;;;;;5031273;28;20036;-75
2022/03/07 08:44:45;;;;;;;12.13;7.10;;;2.30;82.70;;;;;;5047537;28;20081;-75
2022/03/07 08:47:11;;;;;;;13.23;6.37;;;2.40;82.60;;;;;;5034412;28;20071;-74
2022/03/07 08:49:37;;;;;;;11.57;6.83;;;2.50;82.50;;;;;;5034037;28;20056;-75
2022/03/07 08:52:04;;;;;;;12.77;6.13;;;2.70;82.40;;;;;;5018771;28;20022;-74
2022/03/07 08:54:30;;;;;;;11.70;5.37;;;2.70;82.10;;;;;;5033490;28;20049;-75
2022/03/07 08:56:55;;;;;;;9.80;5.83;;;2.80;81.80;;;;;;5016620;28;20095;-75
2022/03/07 08:59:21;;;;;;;14.20;6.47;;;2.90;81.30;;;;;;5017520;28;20030;-75
2022/03/07 09:01:47;;;;;;;9.90;5.60;;;3.10;81.00;;;;;;5034176;28;20042;-75
2022/03/07 09:04:12;;;;;;;9.23;5.20;;;3.00;80.60;;;;;;5017701;28;20477;-75
2022/03/07 09:06:38;;;;;;;9.37;4.83;;;3.20;81.00;;;;;;5025135;28;20108;-75
2022/03/07 09:09:03;;;;;;;11.60;5.67;;;3.30;79.80;;;;;;5051189;28;20037;-75
2022/03/07 09:11:29;;;;;;;10.33;5.00;;;3.40;79.40;;;;;;5042900;28;20485;-75
2022/03/07 09:13:55;;;;;;;12.90;5.20;;;3.50;78.10;;;;;;5033865;28;20025;-74
2022/03/07 09:16:20;;;;;;;8.13;5.07;;;3.60;76.40;;;;;;5033840;28;20026;-75
2022/03/07 09:18:46;;;;;;;10.97;5.40;;;3.70;76.40;;;;;;5033544;28;20037;-75
2022/03/07 09:21:12;;;;;;;7.43;4.60;;;3.80;76.00;;;;;;5017006;28;20029;-75
2022/03/07 09:23:38;;;;;;;8.40;4.80;;;3.90;75.70;;;;;;5020232;28;21396;-77
2022/03/07 09:26:09;;;;;;;10.93;4.40;;;4.00;75.20;;;;;;5033607;28;20051;-76
2022/03/07 09:28:35;;;;;;;8.03;4.30;;;4.10;74.50;;;;;;5033437;28;20072;-75
2022/03/07 09:31:01;;;;;;;6.47;4.40;;;4.20;73.90;;;;;;5033521;28;20428;-75
2022/03/07 09:33:28;;;;;;;8.03;3.60;;;4.20;73.90;;;;;;5033698;28;20389;-76
2022/03/07 09:35:54;;;;;;;10.27;4.27;;;4.30;73.10;;;;;;5050890;28;20420;-76
2022/03/07 09:38:19;;;;;;;7.20;4.23;;;4.40;71.90;;;;;;5053027;28;20039;-76
2022/03/07 09:40:46;;;;;;;8.33;4.30;;;4.50;71.50;;;;;;5040004;28;20037;-75
2022/03/07 09:43:13;;;;;;;10.53;4.17;;;4.50;71.30;;;;;;5008278;28;20022;-75
2022/03/07 09:45:40;;;;;;;8.37;4.33;;;4.60;71.50;;;;;;5034469;28;20021;-75
2022/03/07 09:48:05;;;;;;;9.27;4.07;;;4.70;71.60;;;;;;5035285;28;20137;-75
2022/03/07 09:50:31;;;;;;;6.77;3.53;;;4.80;71.50;;;;;;5046494;28;20108;-75
2022/03/07 09:52:57;;;;;;;5.87;3.37;;;4.90;71.40;;;;;;5042370;28;20124;-75
2022/03/07 09:55:24;;;;;;;6.33;4.03;;;5.10;71.40;;;;;;5052781;28;20116;-75
2022/03/07 09:57:50;;;;;;;7.57;3.63;;;5.30;70.50;;;;;;5035281;28;20037;-75
2022/03/07 10:00:17;;;;;;;7.80;3.80;;;5.60;69.90;;;;;;5016100;28;20038;-75
2022/03/07 10:03:14;;;;;;;6.00;3.30;;;5.60;69.70;;;;;;5032912;28;20382;-75
2022/03/07 10:05:46;;;;;;;7.83;3.77;;;5.80;69.00;;;;;;5038138;28;20371;-75
2022/03/07 10:08:26;;;;;;;6.20;3.87;;;6.10;69.00;;;;;;5033816;28;20018;-75
2022/03/07 10:10:53;;;;;;;27.57;7.13;;;6.40;68.60;;;;;;5036174;28;20068;-75
2022/03/07 10:13:20;;;;;;;10.37;4.00;;;6.80;68.40;;;;;;5036208;28;20029;-75
2022/03/07 10:15:59;;;;;;;7.60;3.67;;;7.30;68.70;;;;;;5052762;28;20389;-75
2022/03/07 10:18:26;;;;;;;6.97;3.17;;;7.90;68.80;;;;;;5052777;28;20032;-75
2022/03/07 10:20:55;;;;;;;5.97;2.47;;;8.60;69.00;;;;;;5035887;28;20059;-75
2022/03/07 10:23:25;;;;;;;5.20;2.40;;;9.30;68.60;;;;;;5053087;28;20029;-83
2022/03/07 10:25:54;;;;;;;7.65;2.20;;;10.10;69.10;;;;;;5052520;28;20028;-82
2022/03/07 10:28:20;;;;;;;4.38;2.00;;;11.00;68.60;;;;;;5038852;28;20364;-82
2022/03/07 10:30:46;;;;;;;4.30;1.55;;;12.00;68.00;;;;;;5026792;28;20060;-75
2022/03/07 10:33:13;;;;;;;3.65;1.25;;;12.80;65.10;;;;;;5035539;28;20017;-76
2022/03/07 10:35:49;;;;;;;3.20;1.50;;;13.60;63.80;;;;;;5052213;28;20464;-75
2022/03/07 10:38:17;;;;;;;3.45;1.42;;;14.40;61.00;;;;;;5052319;28;20111;-75
2022/03/07 10:40:47;;;;;;;4.28;1.48;;;15.10;60.20;;;;;;5037601;28;20389;-75
2022/03/07 10:43:12;;;;;;;2.78;1.23;;;15.70;57.50;;;;;;5038142;28;20528;-75
2022/03/07 10:45:44;;;;;;;4.90;1.70;;;16.30;55.70;;;;;;5032615;28;20025;-76
2022/03/07 10:48:10;;;;;;;3.08;1.45;;;16.90;52.70;;;;;;5041315;28;20054;-75
2022/03/07 10:50:36;;;;;;;2.83;1.27;;;17.40;51.10;;;;;;5038188;28;20511;-76
2022/03/07 10:53:05;;;;;;;8.05;1.60;;;17.70;49.70;;;;;;5035322;28;20029;-76
2022/03/07 10:55:31;;;;;;;4.25;1.05;;;18.10;48.40;;;;;;5051854;28;20029;-76
2022/03/07 10:58:10;;;;;;;4.85;1.38;;;18.50;48.20;;;;;;5031527;28;20588;-75
2022/03/07 11:01:04;;;;;;;3.08;1.30;;;18.90;45.70;;;;;;5045341;28;20025;-76
2022/03/07 11:03:33;;;;;;;3.40;1.15;;;19.30;43.90;;;;;;5052137;28;20388;-76
2022/03/07 11:05:59;;;;;;;5.38;1.40;;;19.50;44.30;;;;;;5051863;28;20021;-75
2022/03/07 11:08:25;;;;;;;2.55;1.17;;;19.80;43.60;;;;;;5051863;28;20092;-76
2022/03/07 11:10:56;;;;;;;3.60;1.30;;;20.10;43.40;;;;;;5031911;28;20093;-76
2022/03/07 11:13:29;;;;;;;3.78;1.08;;;20.40;41.60;;;;;;5039918;28;20030;-76
2022/03/07 11:16:00;;;;;;;2.40;1.00;;;20.80;40.50;;;;;;5042109;28;20029;-77
2022/03/07 11:18:27;;;;;;;3.45;1.50;;;20.90;39.70;;;;;;5052706;28;20120;-76
2022/03/07 11:20:54;;;;;;;2.90;1.20;;;21.10;38.20;;;;;;5047646;28;20036;-76
2022/03/07 11:23:21;;;;;;;3.08;1.00;;;21.20;38.10;;;;;;5056097;28;20048;-76
2022/03/07 11:25:50;;;;;;;2.85;0.98;;;21.40;37.90;;;;;;5039909;28;20116;-78
2022/03/07 11:28:16;;;;;;;3.72;1.52;;;21.50;37.60;;;;;;5035796;28;20024;-76
2022/03/07 11:30:44;;;;;;;5.40;1.88;;;21.70;36.80;;;;;;5041188;28;20029;-77
2022/03/07 11:33:33;;;;;;;4.75;1.60;;;21.90;35.90;;;;;;5056823;28;20432;-77
2022/03/07 11:36:00;;;;;;;3.58;1.35;;;22.00;34.60;;;;;;5055453;28;20021;-77
2022/03/07 11:38:35;;;;;;;3.70;1.27;;;21.90;34.50;;;;;;5052513;28;20021;-83
2022/03/07 11:41:11;;;;;;;3.35;1.23;;;22.00;34.50;;;;;;5036276;28;20036;-86
2022/03/07 11:44:01;;;;;;;19.42;2.83;;;22.00;34.10;;;;;;5037586;28;20033;-78
2022/03/07 11:46:39;;;;;;;4.28;1.70;;;22.20;34.10;;;;;;5041444;28;20025;-77
2022/03/07 11:49:08;;;;;;;2.90;1.42;;;22.30;33.90;;;;;;5034990;28;20049;-77
2022/03/07 11:51:38;;;;;;;4.25;1.60;;;22.50;34.00;;;;;;5035541;28;20021;-76
2022/03/07 11:54:05;;;;;;;5.60;1.38;;;22.60;33.90;;;;;;5035207;28;20033;-76
2022/03/07 11:56:34;;;;;;;4.60;1.60;;;22.90;33.70;;;;;;5036760;28;20026;-77
2022/03/07 11:59:04;;;;;;;4.38;1.20;;;23.30;33.10;;;;;;5037531;28;20087;-77
2022/03/07 12:01:31;;;;;;;2.97;1.17;;;23.30;33.00;;;;;;5056114;28;20104;-77
2022/03/07 12:04:08;;;;;;;4.78;1.77;;;23.10;32.70;;;;;;5055105;28;20021;-76
2022/03/07 12:06:45;;;;;;;4.38;1.50;;;22.60;32.60;;;;;;5056127;28;20047;-76
2022/03/07 12:09:10;;;;;;;3.75;1.58;;;22.30;32.90;;;;;;5055241;28;20041;-76
2022/03/07 12:11:38;;;;;;;5.35;1.83;;;21.90;33.00;;;;;;5038500;28;20033;-76
2022/03/07 12:14:09;;;;;;;4.38;2.17;;;21.70;33.00;;;;;;5054798;28;20371;-75
2022/03/07 12:16:40;;;;;;;5.03;2.08;;;21.40;33.00;;;;;;5056143;28;20037;-77
2022/03/07 12:19:11;;;;;;;4.57;1.95;;;21.20;33.20;;;;;;5055937;28;20469;-76
2022/03/07 12:21:41;;;;;;;4.47;2.15;;;20.90;33.40;;;;;;5052602;28;20037;-76
2022/03/07 12:24:08;;;;;;;3.97;1.90;;;20.70;33.50;;;;;;5048690;28;20025;-76
2022/03/07 12:26:47;;;;;;;5.00;1.90;;;20.50;33.80;;;;;;5040497;28;20478;-77
2022/03/07 12:29:14;;;;;;;5.35;1.80;;;20.30;34.10;;;;;;5034632;28;20428;-77
2022/03/07 12:32:06;;;;;;;5.47;2.45;;;20.20;34.30;;;;;;5034771;28;20034;-75
2022/03/07 12:34:34;;;;;;;5.32;2.45;;;20.10;34.30;;;;;;5049892;28;20484;-77
2022/03/07 12:37:08;;;;;;;3.67;2.10;;;19.90;34.60;;;;;;5054440;28;20028;-75
2022/03/07 12:39:54;;;;;;;5.18;2.88;;;19.50;34.70;;;;;;5035472;28;20508;-75
2022/03/07 12:42:27;;;;;;;5.05;2.10;;;19.10;35.40;;;;;;5035437;28;20021;-75
2022/03/07 12:44:54;;;;;;;5.35;1.88;;;18.70;35.70;;;;;;5034180;28;20031;-76
2022/03/07 12:47:28;;;;;;;4.97;2.40;;;18.60;36.10;;;;;;5042152;28;20017;-76
2022/03/07 12:49:54;;;;;;;;;;;18.80;36.30;;;;;;5054445;28;20037;-75
2022/03/07 12:52:31;;;;;;;4.00;1.45;;;18.90;36.30;;;;;;5037373;28;19909;-76